createdAt,value
2023-03-11T00:02:08.971Z,95492.56
2023-03-11T00:04:39.544Z,95521.34
2023-03-11T00:07:10.383Z,95517.38
2023-03-11T00:09:41.316Z,95515.25
2023-03-11T00:12:12.195Z,95531.44
2023-03-11T00:14:45.391Z,95532.56
2023-03-11T00:17:15.727Z,95548.84
2023-03-11T00:19:45.978Z,95547.22
2023-03-11T00:22:16.255Z,95559.56
2023-03-11T00:24:46.526Z,95560.34
2023-03-11T00:27:16.828Z,95569.84
2023-03-11T00:29:49.786Z,95572.75
2023-03-11T00:32:20.231Z,95594.81
2023-03-11T00:34:50.608Z,95579.25
2023-03-11T00:37:21.616Z,95597.41
2023-03-11T00:39:51.996Z,95591.94
2023-03-11T00:42:22.313Z,95617.19
2023-03-11T00:44:55.231Z,95611.94
2023-03-11T00:47:28.667Z,95616.53
2023-03-11T00:49:59.011Z,95620.19
2023-03-11T00:52:30.053Z,95631.00
2023-03-11T00:55:02.451Z,95626.22
2023-03-11T00:57:32.769Z,95634.34
2023-03-11T01:00:07.104Z,95640.34
2023-03-11T01:02:38.839Z,95642.69
2023-03-11T01:05:10.616Z,95662.84
2023-03-11T01:07:41.048Z,95644.41
2023-03-11T01:10:14.317Z,95666.75
2023-03-11T01:12:44.957Z,95667.78
2023-03-11T01:15:24.220Z,95673.09
2023-03-11T01:17:54.664Z,95662.13
2023-03-11T01:20:25.801Z,95690.97
2023-03-11T01:22:56.642Z,95680.44
2023-03-11T01:25:27.864Z,95701.13
2023-03-11T01:27:57.944Z,95730.13
2023-03-11T01:30:32.066Z,95713.19
2023-03-11T01:33:02.348Z,95712.66
2023-03-11T01:35:36.792Z,95702.50
2023-03-11T01:38:07.129Z,95727.63
2023-03-11T01:40:40.584Z,95725.75
2023-03-11T01:43:51.621Z,95735.59
2023-03-11T01:46:30.195Z,95739.25
2023-03-11T01:49:04.048Z,95746.22
2023-03-11T01:51:41.383Z,95745.53
2023-03-11T01:54:17.768Z,95752.19
2023-03-11T01:56:49.960Z,95767.41
2023-03-11T01:59:25.865Z,95763.19
2023-03-11T02:02:08.361Z,95772.25
2023-03-11T02:04:40.216Z,95790.59
2023-03-11T02:07:12.779Z,95786.03
2023-03-11T02:09:43.544Z,95794.44
2023-03-11T02:12:17.004Z,95798.06
2023-03-11T02:14:51.242Z,95797.28
2023-03-11T02:17:25.078Z,95810.47
2023-03-11T02:20:12.858Z,95816.25
2023-03-11T02:22:46.171Z,95823.56
2023-03-11T02:25:30.113Z,95824.06
2023-03-11T02:28:06.637Z,95834.97
2023-03-11T02:30:39.164Z,95850.41
2023-03-11T02:33:10.282Z,95853.94
2023-03-11T02:35:40.702Z,95863.94
2023-03-11T02:38:11.497Z,95866.50
2023-03-11T02:40:53.061Z,95873.03
2023-03-11T02:43:37.290Z,95876.63
2023-03-11T02:46:10.255Z,95880.91
2023-03-11T02:48:42.069Z,95904.84
2023-03-11T02:51:12.809Z,95903.34
2023-03-11T02:53:49.350Z,95919.84
2023-03-11T02:56:19.908Z,95933.63
2023-03-11T02:58:52.988Z,95910.59
2023-03-11T03:01:24.112Z,95935.13
2023-03-11T03:03:54.905Z,95935.63
2023-03-11T03:06:25.628Z,95948.19
2023-03-11T03:08:56.478Z,95947.00
2023-03-11T03:11:26.821Z,95960.78
2023-03-11T03:13:59.894Z,95923.22
2023-03-11T03:16:30.381Z,95971.53
2023-03-11T03:19:01.283Z,95985.00
2023-03-11T03:21:31.681Z,95983.03
2023-03-11T03:24:02.033Z,95996.38
2023-03-11T03:26:32.368Z,96005.00
2023-03-11T03:29:05.334Z,96015.16
2023-03-11T03:31:36.177Z,96026.06
2023-03-11T03:34:06.797Z,96025.59
2023-03-11T03:36:37.230Z,96055.16
2023-03-11T03:39:08.909Z,96041.50
2023-03-11T03:41:40.898Z,96050.44
2023-03-11T03:44:14.855Z,96058.16
2023-03-11T03:46:45.285Z,96071.78
2023-03-11T03:49:16.172Z,96075.88
2023-03-11T03:51:47.762Z,96103.16
2023-03-11T03:54:30.053Z,96088.59
2023-03-11T03:57:02.392Z,96095.44
2023-03-11T03:59:38.861Z,96077.41
2023-03-11T04:02:09.358Z,96106.97
2023-03-11T04:04:39.819Z,96113.63
2023-03-11T04:07:10.759Z,96115.41
2023-03-11T04:09:42.916Z,96128.28
2023-03-11T04:12:17.706Z,96131.47
2023-03-11T04:14:51.929Z,96140.56
2023-03-11T04:17:23.038Z,96143.13
2023-03-11T04:19:54.991Z,96150.38
2023-03-11T04:22:25.475Z,96135.09
2023-03-11T04:24:55.936Z,96141.16
2023-03-11T04:27:26.618Z,96146.44
2023-03-11T04:29:59.656Z,96162.34
2023-03-11T04:32:30.040Z,96153.25
2023-03-11T04:35:00.748Z,96143.59
2023-03-11T04:37:33.514Z,96179.66
2023-03-11T04:40:05.646Z,96177.97
2023-03-11T04:42:37.062Z,96188.44
2023-03-11T04:45:13.441Z,96192.53
2023-03-11T04:47:47.786Z,96200.88
2023-03-11T04:50:19.753Z,96198.75
2023-03-11T04:52:50.580Z,96199.50
2023-03-11T04:55:21.792Z,96213.47
2023-03-11T04:57:55.134Z,96213.63
2023-03-11T05:00:29.155Z,96221.81
2023-03-11T05:03:07.480Z,96225.44
2023-03-11T05:05:38.215Z,96233.75
2023-03-11T05:08:10.799Z,96229.06
2023-03-11T05:10:44.538Z,96231.78
2023-03-11T05:13:18.002Z,96248.13
2023-03-11T05:15:54.202Z,96253.56
2023-03-11T05:18:24.919Z,96250.69
2023-03-11T05:20:56.309Z,96259.75
2023-03-11T05:23:29.770Z,96258.56
2023-03-11T05:26:05.877Z,96258.75
2023-03-11T05:28:36.846Z,96262.69
2023-03-11T05:31:14.036Z,96268.88
2023-03-11T05:33:45.061Z,96278.75
2023-03-11T05:36:18.574Z,96292.09
2023-03-11T05:38:49.431Z,96286.75
2023-03-11T05:41:19.814Z,96290.53
2023-03-11T05:43:50.865Z,96302.69
2023-03-11T05:46:24.272Z,96305.75
2023-03-11T05:48:54.654Z,96316.94
2023-03-11T05:51:26.033Z,96306.69
2023-03-11T05:53:56.546Z,96320.13
2023-03-11T05:56:36.316Z,96328.13
2023-03-11T05:59:07.683Z,96346.63
2023-03-11T06:01:43.517Z,96338.00
2023-03-11T06:04:14.966Z,96331.16
2023-03-11T06:06:45.960Z,96332.34
2023-03-11T06:09:19.609Z,96351.78
2023-03-11T06:11:52.328Z,96350.97
2023-03-11T06:14:24.875Z,96360.53
2023-03-11T06:17:00.613Z,96378.34
2023-03-11T06:19:31.814Z,96377.78
2023-03-11T06:22:02.216Z,96369.44
2023-03-11T06:24:33.740Z,96391.25
2023-03-11T06:27:04.296Z,96397.34
2023-03-11T06:29:35.108Z,96390.06
2023-03-11T06:32:09.290Z,96407.94
2023-03-11T06:34:39.883Z,96405.84
2023-03-11T06:37:10.666Z,96406.75
2023-03-11T06:39:43.342Z,96417.78
2023-03-11T06:42:17.738Z,96429.78
2023-03-11T06:44:50.539Z,96444.94
2023-03-11T06:47:23.625Z,96440.09
2023-03-11T06:49:54.444Z,96454.31
2023-03-11T06:52:24.809Z,96452.56
2023-03-11T06:54:55.109Z,96455.91
2023-03-11T06:57:26.905Z,96454.81
2023-03-11T06:59:59.783Z,96470.75
2023-03-11T07:02:33.130Z,96471.00
2023-03-11T07:05:03.879Z,96482.19
2023-03-11T07:07:37.649Z,96486.59
2023-03-11T07:10:09.499Z,96484.34
2023-03-11T07:12:39.961Z,96501.91
2023-03-11T07:15:14.180Z,96506.66
2023-03-11T07:17:48.077Z,96509.94
2023-03-11T07:20:19.052Z,96515.59
2023-03-11T07:22:49.472Z,96526.25
2023-03-11T07:25:20.160Z,96533.09
2023-03-11T07:27:50.510Z,96532.16
2023-03-11T07:30:21.866Z,96531.09
2023-03-11T07:32:54.959Z,96541.09
2023-03-11T07:35:25.267Z,96540.34
2023-03-11T07:37:55.537Z,96539.47
2023-03-11T07:40:25.973Z,96534.34
2023-03-11T07:42:56.369Z,96556.28
2023-03-11T07:45:27.048Z,96544.16
2023-03-11T07:48:00.149Z,96553.69
2023-03-11T07:50:30.693Z,96559.56
2023-03-11T07:53:01.055Z,96574.22
2023-03-11T07:55:31.373Z,96582.81
2023-03-11T07:58:01.752Z,96581.16
2023-03-11T08:00:32.340Z,96587.69
2023-03-11T08:03:05.395Z,96593.34
2023-03-11T08:05:37.277Z,96591.03
2023-03-11T08:08:07.900Z,96601.38
2023-03-11T08:10:39.920Z,96601.66
2023-03-11T08:13:10.248Z,96607.78
2023-03-11T08:15:40.869Z,96622.00
2023-03-11T08:18:13.841Z,96627.19
2023-03-11T08:20:45.508Z,96632.09
2023-03-11T08:23:16.001Z,96635.59
2023-03-11T08:25:46.421Z,96650.19
2023-03-11T08:28:16.732Z,96650.28
2023-03-11T08:30:47.145Z,96657.47
2023-03-11T08:33:20.140Z,96655.31
2023-03-11T08:35:50.862Z,96660.47
2023-03-11T08:38:21.453Z,96664.31
2023-03-11T08:40:52.079Z,96676.88
2023-03-11T08:43:22.399Z,96679.50
2023-03-11T08:45:52.949Z,96678.59
2023-03-11T08:48:26.458Z,96679.03
2023-03-11T08:50:57.200Z,96678.41
2023-03-11T08:53:28.755Z,96685.78
2023-03-11T08:55:59.092Z,96694.50
2023-03-11T08:58:30.143Z,96694.06
2023-03-11T09:01:00.496Z,96691.31
2023-03-11T09:03:35.430Z,96693.16
2023-03-11T09:06:09.314Z,96695.44
2023-03-11T09:08:39.674Z,96707.25
2023-03-11T09:11:10.515Z,96704.97
2023-03-11T09:13:41.152Z,96705.84
2023-03-11T09:16:12.571Z,96718.13
2023-03-11T09:18:46.222Z,96718.06
2023-03-11T09:21:16.636Z,96730.31
2023-03-11T09:23:47.070Z,96725.69
2023-03-11T09:26:18.862Z,96744.81
2023-03-11T09:28:49.981Z,96742.59
2023-03-11T09:31:21.676Z,96745.63
2023-03-11T09:33:56.427Z,96747.94
2023-03-11T09:36:26.892Z,96753.91
2023-03-11T09:38:57.244Z,96761.13
2023-03-11T09:41:55.286Z,96766.97
2023-03-11T09:44:36.035Z,96766.63
2023-03-11T09:47:24.558Z,96766.25
2023-03-11T09:50:24.461Z,96781.38
2023-03-11T09:53:15.926Z,96793.19
2023-03-11T09:55:50.359Z,96794.84
2023-03-11T09:58:29.454Z,96806.78
2023-03-11T10:01:00.134Z,96805.09
2023-03-11T10:03:39.352Z,96811.28
2023-03-11T10:06:19.432Z,96814.06
2023-03-11T10:08:57.478Z,96810.63
2023-03-11T10:11:57.199Z,96805.41
2023-03-11T10:14:57.463Z,96815.88
2023-03-11T10:17:47.661Z,96812.91
2023-03-11T10:20:26.428Z,96817.41
2023-03-11T10:23:16.767Z,96819.25
2023-03-11T10:26:00.096Z,96827.78
2023-03-11T10:28:36.192Z,96831.47
2023-03-11T10:31:21.916Z,96826.16
2023-03-11T10:33:58.088Z,96832.25
2023-03-11T10:36:40.961Z,96842.59
2023-03-11T10:39:15.235Z,96846.25
2023-03-11T10:41:52.854Z,96838.34
2023-03-11T10:44:30.065Z,96842.50
2023-03-11T10:47:00.776Z,96845.31
2023-03-11T10:49:32.036Z,96844.97
2023-03-11T10:52:02.110Z,96853.53
2023-03-11T10:54:38.667Z,96853.72
2023-03-11T10:57:23.341Z,96851.78
2023-03-11T10:59:55.995Z,96847.84
2023-03-11T11:02:30.309Z,96848.38
2023-03-11T11:05:32.831Z,96858.03
2023-03-11T11:08:12.606Z,96850.25
2023-03-11T11:10:55.305Z,96862.84
2023-03-11T11:13:27.787Z,96854.13
2023-03-11T11:16:02.583Z,96868.47
2023-03-11T11:18:37.323Z,96865.97
2023-03-11T11:21:11.502Z,96876.13
2023-03-11T11:23:46.153Z,96862.50
2023-03-11T11:26:25.805Z,96874.59
2023-03-11T11:29:15.915Z,96879.50
2023-03-11T11:31:48.587Z,96887.84
2023-03-11T11:34:34.409Z,96877.78
2023-03-11T11:37:07.786Z,96885.34
2023-03-11T11:39:51.980Z,96874.09
2023-03-11T11:42:27.728Z,96874.22
2023-03-11T11:45:05.710Z,96878.38
2023-03-11T11:47:39.443Z,96882.00
2023-03-11T11:50:21.244Z,96884.97
2023-03-11T11:52:57.951Z,96891.03
2023-03-11T11:55:31.689Z,96880.25
2023-03-11T11:58:05.653Z,96885.84
2023-03-11T12:00:49.552Z,96895.56
2023-03-11T12:04:16.599Z,96898.22
2023-03-11T12:06:57.714Z,96896.22
2023-03-11T12:09:39.103Z,96901.41
2023-03-11T12:12:22.402Z,96908.19
2023-03-11T12:15:07.557Z,96903.19
2023-03-11T12:17:42.933Z,96902.97
2023-03-11T12:20:24.393Z,96899.84
2023-03-11T12:23:15.757Z,96893.59
2023-03-11T12:26:08.050Z,96894.03
2023-03-11T12:28:48.536Z,96895.31
2023-03-11T12:31:23.236Z,96890.06
2023-03-11T12:33:59.361Z,96893.09
2023-03-11T12:36:34.460Z,96902.25
2023-03-11T12:39:08.889Z,96896.25
2023-03-11T12:41:42.906Z,96906.28
2023-03-11T12:44:29.256Z,96900.53
2023-03-11T12:47:24.981Z,96897.66
2023-03-11T12:49:57.634Z,96903.53
2023-03-11T12:52:31.466Z,96913.88
2023-03-11T12:55:34.602Z,96915.19
2023-03-11T12:58:51.284Z,96916.78
2023-03-11T13:01:50.434Z,96921.94
2023-03-11T13:04:38.755Z,96931.75
2023-03-11T13:07:45.075Z,96928.25
2023-03-11T13:10:22.096Z,96920.81
2023-03-11T13:12:53.707Z,96934.16
2023-03-11T13:15:42.795Z,96941.06
2023-03-11T13:18:21.542Z,96936.97
2023-03-11T13:21:00.399Z,96932.66
2023-03-11T13:23:40.633Z,96934.81
2023-03-11T13:26:37.993Z,96944.53
2023-03-11T13:29:49.400Z,96952.19
2023-03-11T13:33:07.490Z,96946.56
2023-03-11T13:35:53.620Z,96953.63
2023-03-11T13:39:01.451Z,96958.88
2023-03-11T13:41:37.302Z,96964.00
2023-03-11T13:44:23.214Z,96958.47
2023-03-11T13:47:00.246Z,96970.34
2023-03-11T13:49:38.902Z,96969.13
2023-03-11T13:52:15.889Z,96965.75
2023-03-11T13:54:52.434Z,96973.66
2023-03-11T13:57:30.461Z,96974.88
2023-03-11T14:00:15.890Z,96985.13
2023-03-11T14:02:51.368Z,96981.34
2023-03-11T14:05:26.943Z,96980.78
2023-03-11T14:07:57.625Z,96980.81
2023-03-11T14:10:32.456Z,96989.94
2023-03-11T14:13:18.986Z,96987.75
2023-03-11T14:15:56.000Z,96995.69
2023-03-11T14:18:35.796Z,96999.34
2023-03-11T14:21:09.601Z,96998.47
2023-03-11T14:23:46.485Z,97009.94
2023-03-11T14:26:22.896Z,97006.19
2023-03-11T14:28:56.128Z,97016.97
2023-03-11T14:31:33.706Z,97020.47
2023-03-11T14:34:07.757Z,97020.47
2023-03-11T14:36:45.351Z,97020.16
2023-03-11T14:39:37.824Z,97036.56
2023-03-11T14:42:22.154Z,97032.81
2023-03-11T14:44:58.901Z,97028.50
2023-03-11T14:47:41.909Z,97036.13
2023-03-11T14:50:19.863Z,97040.63
2023-03-11T14:52:55.563Z,97042.00
2023-03-11T14:55:30.345Z,97050.94
2023-03-11T14:58:08.870Z,97058.66
2023-03-11T15:00:45.411Z,97055.91
2023-03-11T15:03:25.293Z,97053.59
2023-03-11T15:05:59.846Z,97059.63
2023-03-11T15:08:34.427Z,97062.50
2023-03-11T15:11:16.895Z,97066.03
2023-03-11T15:13:51.433Z,97058.97
2023-03-11T15:16:32.522Z,97062.56
2023-03-11T15:19:04.606Z,97074.06
2023-03-11T15:21:34.890Z,97077.81
2023-03-11T15:24:07.918Z,97078.78
2023-03-11T15:26:39.154Z,97085.22
2023-03-11T15:29:19.946Z,97093.56
2023-03-11T15:31:51.570Z,97094.13
2023-03-11T15:34:36.064Z,97094.34
2023-03-11T15:37:23.525Z,97101.09
2023-03-11T15:39:55.024Z,97104.59
2023-03-11T15:42:27.997Z,97101.66
2023-03-11T15:45:12.341Z,97100.88
2023-03-11T15:47:43.283Z,97107.47
2023-03-11T15:50:25.260Z,97110.84
2023-03-11T15:52:59.592Z,97111.94
2023-03-11T15:55:30.814Z,97113.91
2023-03-11T15:58:09.265Z,97126.19
2023-03-11T16:00:50.624Z,97125.84
2023-03-11T16:03:21.367Z,97123.22
2023-03-11T16:05:52.043Z,97124.53
2023-03-11T16:08:22.488Z,97121.34
2023-03-11T16:10:52.860Z,97121.69
2023-03-11T16:13:23.182Z,97132.84
2023-03-11T16:15:56.448Z,97132.31
2023-03-11T16:18:26.820Z,97134.13
2023-03-11T16:20:58.291Z,97130.88
2023-03-11T16:23:36.166Z,97133.72
2023-03-11T16:26:17.058Z,97140.28
2023-03-11T16:28:47.557Z,97140.06
2023-03-11T16:31:20.511Z,97135.91
2023-03-11T16:33:50.871Z,97136.13
2023-03-11T16:36:21.175Z,97140.25
2023-03-11T16:38:53.301Z,97148.34
2023-03-11T16:41:23.604Z,97150.41
2023-03-11T16:43:53.949Z,97148.44
2023-03-11T16:46:27.059Z,97155.75
2023-03-11T16:48:57.521Z,97156.69
2023-03-11T16:51:27.856Z,97167.06
2023-03-11T16:53:58.301Z,97162.47
2023-03-11T16:56:28.727Z,97171.66
2023-03-11T16:58:59.194Z,97172.53
2023-03-11T17:01:32.135Z,97179.72
2023-03-11T17:04:02.541Z,97184.94
2023-03-11T17:06:32.917Z,97189.97
2023-03-11T17:09:03.345Z,97191.16
2023-03-11T17:11:34.576Z,97196.53
2023-03-11T17:14:15.923Z,97198.59
2023-03-11T17:16:49.740Z,97206.41
2023-03-11T17:19:20.077Z,97202.63
2023-03-11T17:21:50.442Z,97198.88
2023-03-11T17:24:21.270Z,97204.34
2023-03-11T17:26:51.722Z,97211.69
2023-03-11T17:29:22.158Z,97210.56
2023-03-11T17:31:57.854Z,97219.19
2023-03-11T17:34:28.339Z,97221.59
2023-03-11T17:36:58.996Z,97226.28
2023-03-11T17:39:29.659Z,97227.56
2023-03-11T17:42:02.602Z,97228.59
2023-03-11T17:44:48.317Z,97222.88
2023-03-11T17:47:26.198Z,97232.16
2023-03-11T17:49:57.758Z,97229.84
2023-03-11T17:52:28.206Z,97234.06
2023-03-11T17:54:58.616Z,97240.78
2023-03-11T17:57:29.224Z,97237.47
2023-03-11T18:00:04.267Z,97250.19
2023-03-11T18:02:37.711Z,97249.09
2023-03-11T18:05:09.855Z,97252.50
2023-03-11T18:07:41.808Z,97262.03
2023-03-11T18:10:14.889Z,97262.91
2023-03-11T18:12:48.517Z,97267.59
2023-03-11T18:15:22.754Z,97262.38
2023-03-11T18:17:57.044Z,97268.94
2023-03-11T18:20:27.362Z,97275.69
2023-03-11T18:22:58.146Z,97277.38
2023-03-11T18:25:28.517Z,97275.16
2023-03-11T18:27:58.905Z,97270.72
2023-03-11T18:30:29.431Z,97271.66
2023-03-11T18:33:02.341Z,97271.72
2023-03-11T18:35:32.732Z,97271.94
2023-03-11T18:38:03.019Z,97268.94
2023-03-11T18:40:33.534Z,97268.53
2023-03-11T18:43:03.911Z,97275.88
2023-03-11T18:45:34.669Z,97274.75
2023-03-11T18:48:08.670Z,97278.16
2023-03-11T18:50:38.988Z,97281.34
2023-03-11T18:53:09.262Z,97287.22
2023-03-11T18:55:39.659Z,97282.94
2023-03-11T18:58:10.959Z,97287.44
2023-03-11T19:00:41.152Z,97285.53
2023-03-11T19:03:15.612Z,97287.84
2023-03-11T19:05:52.498Z,97279.31
2023-03-11T19:08:22.869Z,97278.28
2023-03-11T19:10:53.343Z,97279.91
2023-03-11T19:13:23.852Z,97281.13
2023-03-11T19:15:54.806Z,97288.97
2023-03-11T19:18:27.796Z,97284.84
2023-03-11T19:21:01.723Z,97292.97
2023-03-11T19:23:32.787Z,97297.22
2023-03-11T19:26:09.706Z,97307.00
2023-03-11T19:28:40.321Z,97304.41
2023-03-11T19:31:10.773Z,97307.22
2023-03-11T19:33:47.062Z,97300.22
2023-03-11T19:36:18.433Z,97301.19
2023-03-11T19:38:48.638Z,97298.16
2023-03-11T19:41:23.185Z,97304.38
2023-03-11T19:43:53.531Z,97302.59
2023-03-11T19:46:25.181Z,97303.25
2023-03-11T19:48:58.977Z,97301.47
2023-03-11T19:51:38.757Z,97316.56
2023-03-11T19:54:17.947Z,97318.69
2023-03-11T19:56:49.019Z,97314.41
2023-03-11T19:59:19.555Z,97317.06
2023-03-11T20:01:50.065Z,97311.47
2023-03-11T20:04:23.233Z,97318.22
2023-03-11T20:06:53.662Z,97317.50
2023-03-11T20:09:24.091Z,97315.97
2023-03-11T20:11:54.653Z,97320.28
2023-03-11T20:14:25.086Z,97319.22
2023-03-11T20:16:55.535Z,97325.91
2023-03-11T20:19:28.740Z,97323.09
2023-03-11T20:21:59.281Z,97322.88
2023-03-11T20:24:29.749Z,97332.22
2023-03-11T20:27:00.212Z,97327.47
2023-03-11T20:29:30.806Z,97331.72
2023-03-11T20:32:01.424Z,97326.97
2023-03-11T20:34:34.465Z,97330.06
2023-03-11T20:37:05.012Z,97325.69
2023-03-11T20:39:35.500Z,97337.06
2023-03-11T20:42:05.874Z,97343.69
2023-03-11T20:44:36.323Z,97335.94
2023-03-11T20:47:06.959Z,97345.75
2023-03-11T20:49:40.121Z,97341.66
2023-03-11T20:52:10.624Z,97333.47
2023-03-11T20:54:41.139Z,97340.13
2023-03-11T20:57:12.100Z,97341.72
2023-03-11T20:59:42.872Z,97337.09
2023-03-11T21:02:14.532Z,97333.69
2023-03-11T21:04:48.137Z,97330.59
2023-03-11T21:07:18.587Z,97328.72
2023-03-11T21:09:54.590Z,97329.88
2023-03-11T21:12:25.188Z,97327.22
2023-03-11T21:14:55.521Z,97332.00
2023-03-11T21:17:25.958Z,97338.22
2023-03-11T21:19:58.971Z,97328.91
2023-03-11T21:22:29.764Z,97336.28
2023-03-11T21:25:00.222Z,97330.88
2023-03-11T21:27:30.654Z,97330.53
2023-03-11T21:30:02.258Z,97327.91
2023-03-11T21:32:34.473Z,97332.22
2023-03-11T21:35:08.885Z,97333.03
2023-03-11T21:37:39.330Z,97338.09
2023-03-11T21:40:12.615Z,97339.72
2023-03-11T21:42:43.010Z,97332.38
2023-03-11T21:45:15.309Z,97330.81
2023-03-11T21:47:45.761Z,97328.94
2023-03-11T21:50:19.180Z,97334.84
2023-03-11T21:52:49.595Z,97331.28
2023-03-11T21:55:20.173Z,97335.94
2023-03-11T21:57:50.577Z,97335.94
2023-03-11T22:00:21.756Z,97341.78
2023-03-11T22:02:52.070Z,97352.25
2023-03-11T22:05:25.175Z,97355.41
2023-03-11T22:07:55.519Z,97360.91
2023-03-11T22:10:26.230Z,97363.69
2023-03-11T22:12:56.689Z,97375.38
2023-03-11T22:15:27.458Z,97366.09
2023-03-11T22:18:01.204Z,97355.16
2023-03-11T22:20:34.533Z,97351.16
2023-03-11T22:23:05.019Z,97346.81
2023-03-11T22:25:35.514Z,97344.44
2023-03-11T22:28:06.179Z,97348.69
2023-03-11T22:30:36.697Z,97352.50
2023-03-11T22:33:07.446Z,97356.78
2023-03-11T22:35:40.719Z,97352.97
2023-03-11T22:38:11.175Z,97356.84
2023-03-11T22:40:41.552Z,97361.53
2023-03-11T22:43:11.925Z,97358.78
2023-03-11T22:45:42.600Z,97378.97
2023-03-11T22:48:13.054Z,97377.16
2023-03-11T22:50:47.267Z,97370.63
2023-03-11T22:53:21.584Z,97366.84
2023-03-11T22:55:52.404Z,97355.69
2023-03-11T22:58:23.650Z,97345.91
2023-03-11T23:00:53.788Z,97345.91
2023-03-11T23:03:24.160Z,97351.72
2023-03-11T23:05:57.273Z,97353.59
2023-03-11T23:08:27.722Z,97362.22
2023-03-11T23:10:58.252Z,97363.84
2023-03-11T23:13:29.015Z,97368.13
2023-03-11T23:15:59.425Z,97374.66
2023-03-11T23:18:29.837Z,97364.56
2023-03-11T23:21:02.986Z,97366.03
2023-03-11T23:23:33.619Z,97365.78
2023-03-11T23:26:04.075Z,97362.28
2023-03-11T23:28:34.391Z,97369.91
2023-03-11T23:31:05.251Z,97366.81
2023-03-11T23:33:35.641Z,97365.41
2023-03-11T23:36:12.299Z,97364.31
2023-03-11T23:38:42.707Z,97371.31
2023-03-11T23:41:16.162Z,97380.69
2023-03-11T23:43:47.067Z,97384.13
2023-03-11T23:46:17.811Z,97375.59
2023-03-11T23:48:48.222Z,97384.13
2023-03-11T23:51:21.204Z,97385.75
2023-03-11T23:53:51.586Z,97396.63
2023-03-11T23:56:22.425Z,97403.63
2023-03-11T23:58:52.851Z,97402.06
